Time;durP1;ratioP1;P1;durP2;ratioP2;P2;SDS_P1;SDS_P2;PMS_P1;PMS_P2;Temp;Humidity;BMP_temperature;BMP_pressure;BME280_temperature;BME280_humidity;BME280_pressure;Samples;Min_cycle;Max_cycle;Signal;HPM_P1;HPM_P2
2022/08/09 00:00:06;;;;;;;0.80;0.60;;;;;;;15.48;88.18;102847.00;5073944;28;20060;-71
2022/08/09 00:02:32;;;;;;;0.82;0.50;;;;;;;15.50;nan;102854.84;5076817;28;20694;-71
2022/08/09 00:04:58;;;;;;;1.67;0.60;;;;;;;15.47;88.89;102853.31;5073208;28;20395;-71
2022/08/09 00:07:23;;;;;;;2.20;0.60;;;;;;;15.45;88.63;102857.91;5080106;28;20032;-71
2022/08/09 00:09:49;;;;;;;0.80;0.60;;;;;;;15.42;89.18;102863.53;5079035;28;20114;-71
2022/08/09 00:12:14;;;;;;;1.10;0.90;;;;;;;15.32;89.61;102844.00;5075226;28;20063;-72
2022/08/09 00:14:39;;;;;;;2.00;0.55;;;;;;;15.38;89.18;102862.09;5070491;28;20381;-72
2022/08/09 00:17:05;;;;;;;1.35;0.75;;;;;;;15.36;89.25;102858.72;5079624;28;20123;-71
2022/08/09 00:19:31;;;;;;;0.70;0.50;;;;;;;15.35;89.72;102859.69;5076549;28;20025;-71
2022/08/09 00:21:56;;;;;;;0.90;0.70;;;;;;;15.32;89.96;102858.13;5080725;28;20085;-72
2022/08/09 00:24:22;;;;;;;1.15;0.65;;;;;;;14.96;89.07;102801.81;5077189;28;20025;-72
2022/08/09 00:26:47;;;;;;;1.10;0.55;;;;;;;15.28;89.11;102855.88;5068180;28;20070;-72
2022/08/09 00:29:13;;;;;;;3.08;0.85;;;;;;;15.27;89.43;102854.22;5078426;28;20492;-71
2022/08/09 00:31:38;;;;;;;1.88;0.85;;;;;;;15.25;89.85;102854.31;5065880;28;20143;-71
2022/08/09 00:34:03;;;;;;;2.08;0.93;;;;;;;15.21;89.47;102850.25;5072824;28;20443;-71
2022/08/09 00:36:29;;;;;;;0.70;0.50;;;;;;;15.17;89.39;102852.31;5076281;28;20089;-71
2022/08/09 00:38:54;;;;;;;0.70;0.50;;;;;;;15.11;90.22;102844.88;5077961;28;20029;-72
2022/08/09 00:41:21;;;;;;;1.55;0.52;;;;;;;15.15;90.74;102850.75;5081148;28;20111;-72
2022/08/09 00:43:50;;;;;;;0.85;0.57;;;;;;;15.02;90.21;102835.00;5071624;28;20409;-72
2022/08/09 00:46:16;;;;;;;1.42;0.50;;;;;;;15.02;90.24;102840.31;5080689;28;20024;-72
2022/08/09 00:48:42;;;;;;;1.50;0.70;;;;;;;15.08;89.51;102854.94;5078336;28;20036;-72
2022/08/09 00:51:07;;;;;;;1.40;0.73;;;;;;;14.97;89.90;102837.22;5075191;28;20026;-72
2022/08/09 00:53:34;;;;;;;0.70;0.60;;;;;;;15.09;90.72;102856.59;5083351;28;20040;-71
2022/08/09 00:56:00;;;;;;;1.52;0.70;;;;;;;15.04;90.69;102853.50;5081072;28;20490;-72
2022/08/09 00:58:26;;;;;;;0.95;0.60;;;;;;;14.96;90.38;102838.19;5075881;28;20025;-72
2022/08/09 01:00:55;;;;;;;1.15;0.82;;;;;;;15.08;93.59;102850.44;5070694;28;20509;-71
2022/08/09 01:03:47;;;;;;;0.90;0.68;;;;;;;14.99;93.45;102845.91;5053719;28;20033;-71
2022/08/09 01:06:23;;;;;;;3.67;0.98;;;;;;;14.93;92.43;102838.44;5075847;28;20103;-71
2022/08/09 01:09:04;;;;;;;1.02;0.45;;;;;;;14.99;92.95;102854.72;5070926;28;20032;-72
2022/08/09 01:11:41;;;;;;;1.17;0.70;;;;;;;14.98;93.85;102855.72;5072904;28;20056;-72
2022/08/09 01:14:12;;;;;;;1.20;0.70;;;;;;;14.95;93.62;102849.81;5077749;28;20123;-72
2022/08/09 01:16:44;;;;;;;2.90;0.98;;;;;;;14.92;92.98;102852.72;5068538;28;20031;-71
2022/08/09 01:19:36;;;;;;;0.93;0.70;;;;;;;14.88;91.93;102857.47;5079577;28;20051;-71
2022/08/09 01:22:26;;;;;;;1.38;0.68;;;;;;;14.84;91.56;102857.84;5015136;28;20040;-71
2022/08/09 01:25:06;;;;;;;1.25;0.57;;;;;;;14.80;90.56;102859.91;5074833;28;20024;-71
2022/08/09 01:27:33;;;;;;;0.60;0.50;;;;;;;14.75;89.50;102857.63;5074182;28;20085;-71
2022/08/09 01:30:03;;;;;;;1.08;0.60;;;;;;;14.73;89.71;102864.91;5076867;28;20144;-71
2022/08/09 01:32:44;;;;;;;1.55;0.70;;;;;;;14.72;89.50;102863.22;5073783;28;20072;-71
2022/08/09 01:35:34;;;;;;;0.50;0.38;;;;;;;14.65;89.60;102859.38;5070881;28;20388;-71
2022/08/09 01:38:03;;;;;;;0.90;0.30;;;;;;;14.66;89.36;102861.06;5076409;28;20108;-71
2022/08/09 01:40:32;;;;;;;1.30;0.68;;;;;;;14.60;88.69;102869.56;5073931;28;20023;-71
2022/08/09 01:42:59;;;;;;;0.63;0.47;;;;;;;14.57;89.15;102872.47;5075626;28;20024;-71
2022/08/09 01:45:26;;;;;;;0.30;0.20;;;;;;;14.57;89.66;102867.16;5074881;28;20032;-71
2022/08/09 01:47:53;;;;;;;0.35;0.30;;;;;;;14.48;89.69;102857.22;5073533;28;20093;-71
2022/08/09 01:50:22;;;;;;;0.55;0.25;;;;;;;14.49;90.08;102873.06;5073875;28;20013;-71
2022/08/09 01:52:48;;;;;;;0.70;0.20;;;;;;;14.37;89.88;102850.16;5081560;28;20032;-72
2022/08/09 01:55:15;;;;;;;0.30;0.20;;;;;;;14.42;90.04;102869.22;5074358;28;20031;-72
2022/08/09 01:57:44;;;;;;;0.20;0.20;;;;;;;14.37;90.92;102866.94;5074359;28;20036;-72
2022/08/09 02:00:11;;;;;;;0.68;0.40;;;;;;;14.35;90.92;102865.38;5074886;28;20020;-72
2022/08/09 02:02:40;;;;;;;0.47;0.22;;;;;;;14.28;90.84;102851.75;5075168;28;20060;-71
2022/08/09 02:05:09;;;;;;;0.32;0.30;;;;;;;14.34;90.63;102869.00;5076735;28;20503;-71
2022/08/09 02:07:50;;;;;;;0.35;0.30;;;;;;;14.31;89.77;102867.44;5071229;28;20031;-72
2022/08/09 02:10:18;;;;;;;0.35;0.22;;;;;;;14.29;89.52;102864.06;5074370;28;20024;-72
2022/08/09 02:12:46;;;;;;;0.80;0.45;;;;;;;14.26;90.53;102874.91;5074969;28;20020;-72
2022/08/09 02:15:14;;;;;;;0.50;0.40;;;;;;;14.25;91.29;102870.59;5078819;28;20024;-72
2022/08/09 02:17:41;;;;;;;1.48;0.63;;;;;;;14.22;91.17;102873.50;5070311;28;20020;-71
2022/08/09 02:20:07;;;;;;;0.47;0.38;;;;;;;14.22;91.39;102877.97;5081754;28;20029;-71
2022/08/09 02:23:03;;;;;;;1.50;0.70;;;;;;;14.18;91.33;102875.56;5075608;28;20134;-71
2022/08/09 02:25:33;;;;;;;1.73;0.70;;;;;;;14.16;91.55;102869.53;5073183;28;20028;-71
2022/08/09 02:28:05;;;;;;;0.55;0.40;;;;;;;14.13;91.47;102874.22;5073154;28;20509;-71
2022/08/09 02:30:38;;;;;;;0.93;0.50;;;;;;;14.11;92.49;102865.53;5079321;28;20135;-71
2022/08/09 02:33:05;;;;;;;0.10;0.10;;;;;;;14.03;93.61;102858.22;5068603;28;20606;-71
2022/08/09 02:35:34;;;;;;;1.48;0.50;;;;;;;13.95;93.34;102850.84;5078454;28;20465;-71
2022/08/09 02:38:01;;;;;;;0.80;0.50;;;;;;;14.04;93.10;102865.19;5075064;28;20107;-72
2022/08/09 02:40:28;;;;;;;1.65;0.55;;;;;;;13.95;92.60;102855.31;5074719;28;20058;-71
2022/08/09 02:42:56;;;;;;;0.43;0.30;;;;;;;13.95;91.77;102860.63;5076908;28;20032;-72
2022/08/09 02:45:42;;;;;;;0.35;0.28;;;;;;;13.87;90.97;102844.47;5070762;28;20016;-71
2022/08/09 02:48:12;;;;;;;0.28;0.25;;;;;;;13.92;91.34;102848.47;5072264;28;20047;-72
2022/08/09 02:50:43;;;;;;;0.28;0.20;;;;;;;13.93;91.56;102846.63;5074826;28;20020;-72
2022/08/09 02:53:15;;;;;;;0.65;0.43;;;;;;;13.79;92.62;102840.63;5074170;28;20020;-71
2022/08/09 02:55:43;;;;;;;0.10;0.10;;;;;;;13.91;93.17;102856.53;5073775;28;20522;-71
2022/08/09 02:58:10;;;;;;;0.45;0.20;;;;;;;13.84;92.34;102856.19;5076457;28;20420;-71
2022/08/09 03:00:37;;;;;;;0.30;0.10;;;;;;;13.86;92.41;102851.59;5071004;28;20021;-71
2022/08/09 03:03:05;;;;;;;0.47;0.30;;;;;;;13.84;92.28;102852.69;5077669;28;20582;-71
2022/08/09 03:05:31;;;;;;;0.70;0.57;;;;;;;13.84;92.20;102858.84;5077277;28;20112;-71
2022/08/09 03:08:00;;;;;;;0.32;0.20;;;;;;;13.79;91.12;102856.56;5071876;28;20036;-71
2022/08/09 03:10:27;;;;;;;0.50;0.40;;;;;;;13.72;90.50;102850.06;5073345;28;20024;-71
2022/08/09 03:12:53;;;;;;;0.60;0.30;;;;;;;13.75;91.26;102859.56;5074629;28;20032;-71
2022/08/09 03:15:20;;;;;;;0.20;0.10;;;;;;;13.71;91.10;102858.13;5074226;28;20073;-71
2022/08/09 03:17:46;;;;;;;0.35;0.20;;;;;;;13.67;90.67;102859.31;5073839;28;20021;-71
2022/08/09 03:20:13;;;;;;;0.50;0.30;;;;;;;13.57;91.20;102854.75;5073379;28;20035;-72
2022/08/09 03:22:43;;;;;;;0.68;0.50;;;;;;;13.54;90.80;102849.72;5072091;28;20017;-71
2022/08/09 03:25:10;;;;;;;0.38;0.25;;;;;;;13.54;91.58;102862.97;5078769;28;20016;-72
2022/08/09 03:27:37;;;;;;;0.52;0.28;;;;;;;13.51;91.12;102863.19;5070525;28;20429;-71
2022/08/09 03:30:03;;;;;;;1.02;0.38;;;;;;;13.49;90.85;102865.13;5073846;28;20041;-71
2022/08/09 03:32:30;;;;;;;4.65;0.30;;;;;;;13.47;91.13;102861.75;5071375;28;20082;-72
2022/08/09 03:34:56;;;;;;;0.43;0.28;;;;;;;13.47;92.65;102866.22;5072495;28;20032;-72
2022/08/09 03:37:22;;;;;;;0.47;0.38;;;;;;;13.43;93.29;102859.44;5072021;28;20106;-72
2022/08/09 03:39:48;;;;;;;0.60;0.40;;;;;;;13.40;93.80;102868.50;5069840;28;20090;-72
2022/08/09 03:42:13;;;;;;;0.88;0.60;;;;;;;13.27;93.02;102847.34;5073708;28;20039;-72
2022/08/09 03:44:39;;;;;;;0.50;0.40;;;;;;;13.33;92.25;102854.88;5073351;28;20448;-72
2022/08/09 03:47:04;;;;;;;0.55;0.35;;;;;;;13.29;91.58;102852.56;5070416;28;20349;-72
2022/08/09 03:49:31;;;;;;;2.95;0.68;;;;;;;13.37;91.99;102861.63;5075048;28;20024;-72
2022/08/09 03:51:59;;;;;;;0.45;0.22;;;;;;;13.31;91.73;102850.66;5072279;28;20037;-72
2022/08/09 03:54:28;;;;;;;0.70;0.40;;;;;;;13.40;91.16;102865.84;5072328;28;20020;-72
2022/08/09 03:56:55;;;;;;;1.40;0.60;;;;;;;13.41;90.77;102864.84;5073455;28;20467;-72
2022/08/09 03:59:21;;;;;;;0.65;0.60;;;;;;;13.42;91.06;102868.38;5074582;28;20024;-72
2022/08/09 04:01:49;;;;;;;0.63;0.50;;;;;;;13.37;90.49;102863.44;5071450;28;20096;-72
2022/08/09 04:04:15;;;;;;;0.70;0.38;;;;;;;13.40;90.48;102871.16;5071954;28;20115;-72
2022/08/09 04:06:40;;;;;;;1.17;0.60;;;;;;;13.43;91.57;102875.38;5070603;28;20036;-72
2022/08/09 04:09:06;;;;;;;1.30;0.98;;;;;;;13.38;93.07;102868.59;5042148;28;20078;-72
2022/08/09 04:11:57;;;;;;;1.00;0.50;;;;;;;13.32;93.50;102863.78;5082589;28;20428;-72
2022/08/09 04:14:22;;;;;;;2.35;0.43;;;;;;;13.31;92.96;102863.91;5076706;28;20235;-72
2022/08/09 04:16:47;;;;;;;1.48;0.73;;;;;;;13.37;92.20;102876.69;5075437;28;20047;-71
2022/08/09 04:19:13;;;;;;;1.17;0.93;;;;;;;13.36;93.01;102869.69;5078692;28;20115;-71
2022/08/09 04:21:39;;;;;;;0.60;0.47;;;;;;;13.36;93.81;102875.84;5077546;28;20143;-72
2022/08/09 04:24:05;;;;;;;0.38;0.38;;;;;;;13.36;94.88;102880.28;5079305;28;20487;-73
2022/08/09 04:26:31;;;;;;;0.82;0.55;;;;;;;13.32;94.41;102865.59;5076473;28;20022;-71
2022/08/09 04:28:56;;;;;;;0.63;0.43;;;;;;;13.33;92.71;102870.78;5074172;28;20032;-71
2022/08/09 04:31:21;;;;;;;1.00;0.80;;;;;;;13.40;92.66;102881.75;5055848;28;20116;-71
2022/08/09 04:33:47;;;;;;;1.20;0.60;;;;;;;13.43;92.95;102881.50;5077833;28;20056;-71
2022/08/09 04:36:12;;;;;;;1.10;0.68;;;;;;;13.42;91.97;102874.53;5075477;28;20020;-71
2022/08/09 04:38:37;;;;;;;1.00;0.70;;;;;;;13.30;91.39;102860.38;5072996;28;20036;-71
2022/08/09 04:41:03;;;;;;;0.80;0.70;;;;;;;13.41;91.06;102871.97;5059110;28;20032;-71
2022/08/09 04:43:28;;;;;;;1.20;0.70;;;;;;;13.42;91.97;102863.06;5074306;28;20108;-71
2022/08/09 04:45:54;;;;;;;1.17;0.82;;;;;;;13.53;92.07;102882.50;5059409;28;20032;-71
2022/08/09 04:48:19;;;;;;;0.60;0.50;;;;;;;13.56;90.75;102884.06;5073540;28;20028;-73
2022/08/09 04:50:44;;;;;;;1.02;0.85;;;;;;;13.60;92.07;102880.19;5077194;28;20274;-72
2022/08/09 04:53:10;;;;;;;1.08;0.30;;;;;;;13.66;95.03;102885.03;5077672;28;20142;-71
2022/08/09 04:55:41;;;;;;;0.63;0.55;;;;;;;13.67;95.49;102885.88;5075738;28;20036;-71
2022/08/09 04:58:07;;;;;;;0.63;0.60;;;;;;;13.73;94.55;102894.19;5079321;28;20240;-73
2022/08/09 05:00:33;;;;;;;1.65;0.30;;;;;;;13.73;93.07;102894.19;5071860;28;20388;-72
2022/08/09 05:03:03;;;;;;;0.43;0.30;;;;;;;13.62;92.23;102880.09;5075771;28;20506;-71
2022/08/09 05:05:29;;;;;;;1.15;0.52;;;;;;;13.78;91.57;102901.78;5076430;28;20539;-71
2022/08/09 05:07:55;;;;;;;0.95;0.43;;;;;;;13.81;91.13;102906.88;5078669;28;20115;-71
2022/08/09 05:10:21;;;;;;;5.18;1.08;;;;;;;13.81;90.17;102906.03;5076881;28;20180;-72
2022/08/09 05:12:46;;;;;;;0.77;0.50;;;;;;;13.81;89.77;102912.19;5076728;28;20563;-71
2022/08/09 05:15:11;;;;;;;1.95;0.90;;;;;;;13.88;91.15;102907.22;5060935;28;20024;-71
2022/08/09 05:17:37;;;;;;;0.80;0.68;;;;;;;13.93;94.13;102903.22;5072925;28;20021;-73
2022/08/09 05:20:02;;;;;;;1.23;0.50;;;;;;;13.97;99.08;102896.72;5076191;28;20052;-71
2022/08/09 05:22:28;;;;;;;1.15;0.98;;;;;;;13.97;98.99;102899.38;5078502;28;20030;-71
2022/08/09 05:24:53;;;;;;;0.70;0.50;;;;;;;13.94;95.69;102883.69;5058950;28;20020;-71
2022/08/09 05:27:18;;;;;;;1.02;0.70;;;;;;;14.05;94.49;102892.63;5075797;28;20492;-71
2022/08/09 05:29:44;;;;;;;1.05;0.70;;;;;;;14.13;94.05;102895.47;5074154;28;20516;-71
2022/08/09 05:32:09;;;;;;;1.27;0.52;;;;;;;14.21;94.19;102893.06;5076107;28;20035;-71
2022/08/09 05:34:35;;;;;;;0.30;0.20;;;;;;;14.27;96.52;102884.59;5075172;28;20028;-71
2022/08/09 05:37:02;;;;;;;0.60;0.30;;;;;;;14.36;96.62;102897.13;5073713;28;20034;-71
2022/08/09 05:39:27;;;;;;;0.45;0.28;;;;;;;14.44;95.26;102900.97;5073802;28;20032;-72
2022/08/09 05:41:53;;;;;;;0.63;0.50;;;;;;;14.49;94.82;102910.25;5075122;28;20034;-71
2022/08/09 05:44:18;;;;;;;1.33;0.60;;;;;;;14.60;95.95;102896.97;5076256;28;20024;-72
2022/08/09 05:46:43;;;;;;;0.90;0.68;;;;;;;14.72;99.77;102908.41;5075233;28;20060;-71
2022/08/09 05:49:09;;;;;;;1.08;0.82;;;;;;;14.72;100.00;102900.44;5073048;28;20455;-72
2022/08/09 05:51:34;;;;;;;3.20;0.70;;;;;;;14.75;99.26;102897.50;5076227;28;20519;-71
2022/08/09 05:53:59;;;;;;;1.58;0.70;;;;;;;15.00;97.40;102922.03;5060335;28;20440;-73
2022/08/09 05:56:27;;;;;;;2.08;0.80;;;;;;;15.16;98.19;102933.09;5077143;28;20042;-71
2022/08/09 05:58:56;;;;;;;2.30;1.63;;;;;;;15.36;100.00;102936.72;5074099;28;20028;-71
2022/08/09 06:01:27;;;;;;;1.20;0.85;;;;;;;15.51;100.00;102931.06;5061497;28;20024;-71
2022/08/09 06:03:53;;;;;;;1.55;0.85;;;;;;;15.63;100.00;102936.19;5067617;28;20037;-71
2022/08/09 06:06:19;;;;;;;5.40;2.05;;;;;;;15.74;100.00;102931.75;5075091;28;20058;-72
2022/08/09 06:08:44;;;;;;;2.13;1.20;;;;;;;15.91;100.00;102943.63;5075511;28;20052;-72
2022/08/09 06:11:10;;;;;;;2.00;1.50;;;;;;;16.07;100.00;102951.09;5075561;28;20017;-72
2022/08/09 06:13:36;;;;;;;2.47;1.40;;;;;;;16.25;100.00;102944.16;5076222;28;20475;-72
2022/08/09 06:16:02;;;;;;;2.03;0.90;;;;;;;16.39;100.00;102954.41;5072128;28;20104;-71
2022/08/09 06:18:29;;;;;;;3.88;1.77;;;;;;;16.61;100.00;102947.16;5071627;28;20404;-71
2022/08/09 06:20:58;;;;;;;2.78;1.60;;;;;;;16.82;100.00;102939.06;5073146;28;20127;-72
2022/08/09 06:23:31;;;;;;;1.95;1.45;;;;;;;17.09;100.00;102949.03;5075939;28;20031;-71
2022/08/09 06:25:57;;;;;;;1.83;1.40;;;;;;;17.22;100.00;102946.06;5072437;28;20104;-70
2022/08/09 06:28:22;;;;;;;6.00;1.92;;;;;;;17.38;100.00;102950.81;5076288;28;20553;-70
2022/08/09 06:30:47;;;;;;;2.08;1.13;;;;;;;17.44;99.67;102955.56;5073107;28;20054;-71
2022/08/09 06:33:13;;;;;;;2.63;0.98;;;;;;;17.66;99.64;102960.59;5070466;28;20035;-71
2022/08/09 06:35:38;;;;;;;1.83;1.23;;;;;;;17.73;98.52;102960.84;5080004;28;20033;-72
2022/08/09 06:38:04;;;;;;;3.15;1.20;;;;;;;17.82;98.63;102973.34;5073502;28;20055;-72
2022/08/09 06:40:29;;;;;;;1.60;1.00;;;;;;;18.00;97.79;102965.41;5073437;28;20032;-75
2022/08/09 06:42:55;;;;;;;1.10;0.60;;;;;;;18.22;97.26;102977.53;5073194;28;20036;-72
2022/08/09 06:45:20;;;;;;;1.90;1.38;;;;;;;18.35;95.93;102985.19;5072897;28;20032;-71
2022/08/09 06:47:47;;;;;;;3.78;1.27;;;;;;;18.43;94.81;102973.75;5073664;28;20028;-73
2022/08/09 06:50:13;;;;;;;3.25;1.08;;;;;;;18.77;94.30;102979.31;5073067;28;20122;-71
2022/08/09 06:52:44;;;;;;;3.78;0.98;;;;;;;19.32;92.05;102987.16;5076747;28;20024;-71
2022/08/09 06:55:20;;;;;;;3.28;0.80;;;;;;;20.13;87.80;102991.34;5059289;28;20235;-71
2022/08/09 06:57:45;;;;;;;1.48;0.60;;;;;;;20.47;84.04;103000.34;5067633;28;20021;-73
2022/08/09 07:00:11;;;;;;;0.93;0.55;;;;;;;21.41;83.79;102990.22;5071568;28;20392;-73
2022/08/09 07:02:37;;;;;;;4.40;0.63;;;;;;;21.05;79.14;102987.88;5071668;28;20515;-73
2022/08/09 07:05:03;;;;;;;1.73;0.52;;;;;;;21.54;79.93;102987.91;5075143;28;20035;-74
2022/08/09 07:07:29;;;;;;;0.65;0.43;;;;;;;22.04;76.51;103002.88;5072098;28;20023;-73
2022/08/09 07:09:55;;;;;;;3.13;0.45;;;;;;;22.59;75.34;103001.09;5075024;28;20035;-73
2022/08/09 07:12:21;;;;;;;0.82;0.50;;;;;;;23.14;75.60;102989.28;5069443;28;20126;-73
2022/08/09 07:14:47;;;;;;;1.45;0.65;;;;;;;23.09;70.53;102999.75;5075024;28;20025;-73
2022/08/09 07:17:13;;;;;;;1.58;0.50;;;;;;;22.59;73.47;102999.25;5074660;28;20020;-71
2022/08/09 07:19:38;;;;;;;2.20;0.63;;;;;;;22.53;73.03;102991.88;5073407;28;20032;-73
2022/08/09 07:22:04;;;;;;;1.45;0.40;;;;;;;23.41;70.16;102992.41;5075820;28;20053;-71
2022/08/09 07:24:30;;;;;;;1.98;0.40;;;;;;;24.17;68.68;102995.78;5072948;28;20016;-71
2022/08/09 07:26:56;;;;;;;4.55;0.47;;;;;;;24.14;69.00;102998.84;5072409;28;20513;-73
2022/08/09 07:29:22;;;;;;;2.83;0.30;;;;;;;25.00;65.90;103007.09;5069029;28;20044;-73
2022/08/09 07:31:47;;;;;;;1.33;0.65;;;;;;;25.26;64.41;103000.28;5069000;28;20081;-72
2022/08/09 07:34:12;;;;;;;1.33;0.50;;;;;;;26.30;63.18;103001.28;5072470;28;20071;-72
2022/08/09 07:36:39;;;;;;;1.27;0.25;;;;;;;26.95;58.90;102999.75;5072749;28;20029;-72
2022/08/09 07:39:05;;;;;;;1.75;0.40;;;;;;;27.14;58.12;102979.13;5074670;28;20032;-72
2022/08/09 07:41:31;;;;;;;1.85;0.40;;;;;;;26.80;59.30;102996.41;5070360;28;20490;-72
2022/08/09 07:43:56;;;;;;;1.45;0.32;;;;;;;25.91;59.90;102984.66;5075942;28;20041;-72
2022/08/09 07:46:22;;;;;;;2.53;0.47;;;;;;;26.23;61.15;102979.59;5077461;28;20439;-72
2022/08/09 07:48:47;;;;;;;2.47;0.30;;;;;;;25.93;60.38;102992.59;5076929;28;20024;-72
2022/08/09 07:51:13;;;;;;;0.93;0.52;;;;;;;25.56;62.44;102989.22;5076981;28;20021;-72
2022/08/09 07:53:38;;;;;;;0.85;0.35;;;;;;;26.08;59.73;102993.28;5077462;28;20341;-72
2022/08/09 07:56:04;;;;;;;0.85;0.28;;;;;;;26.44;59.47;102982.16;5076064;28;20025;-72
2022/08/09 07:58:30;;;;;;;1.80;0.55;;;;;;;25.71;61.05;102998.06;5077592;28;20236;-73
2022/08/09 08:00:55;;;;;;;0.43;0.20;;;;;;;26.27;58.93;103000.63;5070482;28;20043;-72
2022/08/09 08:03:20;;;;;;;2.85;0.38;;;;;;;26.33;60.00;102996.28;5076999;28;20028;-72
2022/08/09 08:05:46;;;;;;;0.40;0.35;;;;;;;27.08;55.81;102999.75;5075122;28;20028;-72
2022/08/09 08:08:12;;;;;;;1.85;0.60;;;;;;;26.87;57.33;102998.09;5077283;28;20025;-72
2022/08/09 08:10:37;;;;;;;0.75;0.43;;;;;;;26.26;57.59;103004.41;5072079;28;20024;-72
2022/08/09 08:13:03;;;;;;;0.80;0.20;;;;;;;26.68;58.47;102982.66;5077284;28;20025;-72
2022/08/09 08:15:29;;;;;;;1.15;0.25;;;;;;;26.98;56.01;102998.50;5061379;28;20020;-72
2022/08/09 08:17:54;;;;;;;0.52;0.20;;;;;;;26.29;57.07;103000.44;5076983;28;20395;-72
2022/08/09 08:20:21;;;;;;;0.20;0.10;;;;;;;27.65;54.49;103010.16;5075104;28;20035;-72
2022/08/09 08:22:46;;;;;;;0.17;0.17;;;;;;;28.88;51.32;103015.47;5079431;28;20062;-72
2022/08/09 08:25:13;;;;;;;0.47;0.30;;;;;;;29.00;50.93;103023.72;5073788;28;20048;-72
2022/08/09 08:27:39;;;;;;;0.50;0.15;;;;;;;30.45;50.19;103021.59;5073802;28;20040;-72
2022/08/09 08:30:05;;;;;;;1.38;0.20;;;;;;;29.97;50.40;103016.97;5073707;28;20072;-72
2022/08/09 08:32:31;;;;;;;0.40;0.20;;;;;;;30.24;48.85;103012.84;5077772;28;20055;-72
2022/08/09 08:34:57;;;;;;;0.77;0.30;;;;;;;31.03;46.20;103020.94;5077240;28;20794;-72
2022/08/09 08:37:23;;;;;;;0.40;0.20;;;;;;;30.42;49.72;103016.59;5080658;28;20032;-72
2022/08/09 08:39:48;;;;;;;0.10;0.10;;;;;;;31.16;46.15;103028.91;5072400;28;20085;-72
2022/08/09 08:42:14;;;;;;;0.50;0.32;;;;;;;29.60;48.71;103022.38;5074863;28;20031;-72
2022/08/09 08:44:42;;;;;;;0.50;0.20;;;;;;;30.98;47.06;103015.34;5073994;28;20024;-72
2022/08/09 08:47:11;;;;;;;0.95;0.20;;;;;;;32.62;43.99;103013.41;5075971;28;20103;-72
2022/08/09 08:49:37;;;;;;;0.45;0.20;;;;;;;33.50;43.69;103005.47;5078751;28;20115;-72
2022/08/09 08:52:04;;;;;;;0.28;0.10;;;;;;;31.32;43.30;103015.63;5072804;28;20107;-72
2022/08/09 08:54:29;;;;;;;0.65;0.30;;;;;;;30.35;46.00;103008.53;5074294;28;20536;-72
2022/08/09 08:56:55;;;;;;;0.68;0.20;;;;;;;30.75;48.53;102988.88;5078674;28;20030;-72
2022/08/09 08:59:20;;;;;;;0.80;0.40;;;;;;;31.75;46.25;103001.59;5071680;28;20028;-72
2022/08/09 09:01:48;;;;;;;0.30;0.10;;;;;;;31.26;46.78;102987.38;5080875;28;20428;-72
2022/08/09 09:04:15;;;;;;;0.63;0.28;;;;;;;32.34;44.48;103003.31;5068511;28;20035;-72
2022/08/09 09:06:41;;;;;;;0.20;0.13;;;;;;;33.69;44.01;103007.91;5081169;28;20024;-72
2022/08/09 09:09:08;;;;;;;0.45;0.10;;;;;;;34.81;42.38;102998.16;5079652;28;20033;-73
2022/08/09 09:11:34;;;;;;;0.43;0.20;;;;;;;33.89;42.89;103008.19;5074808;28;20036;-72
2022/08/09 09:14:07;;;;;;;1.05;0.20;;;;;;;33.30;42.69;103010.69;5067510;28;20056;-72
2022/08/09 09:16:32;;;;;;;0.50;0.17;;;;;;;33.62;44.04;102997.16;5075278;28;20675;-73
2022/08/09 09:19:00;;;;;;;0.40;0.20;;;;;;;35.15;40.59;103003.38;5074755;28;20024;-72
2022/08/09 09:21:25;;;;;;;0.20;0.17;;;;;;;33.49;43.22;102997.50;5071288;28;20559;-72
2022/08/09 09:23:50;;;;;;;0.50;0.20;;;;;;;32.98;42.64;103003.88;5077204;28;20119;-73
2022/08/09 09:26:22;;;;;;;1.55;0.30;;;;;;;33.80;41.79;102996.03;5073933;28;20469;-72
2022/08/09 09:28:47;;;;;;;0.50;0.20;;;;;;;34.27;41.09;102997.38;5071430;28;20606;-72
2022/08/09 09:31:18;;;;;;;1.33;0.20;;;;;;;34.26;40.76;103002.03;5078897;28;20024;-72
2022/08/09 09:33:44;;;;;;;0.77;0.20;;;;;;;35.19;39.11;103004.50;5069294;28;20033;-72
2022/08/09 09:36:12;;;;;;;0.45;0.20;;;;;;;34.19;40.56;102998.69;5071831;28;20033;-72
2022/08/09 09:38:55;;;;;;;4.97;1.27;;;;;;;35.43;39.09;103001.31;5072175;28;20491;-72
2022/08/09 09:41:26;;;;;;;0.73;0.20;;;;;;;34.77;39.26;102996.22;5087889;28;20108;-72
2022/08/09 09:43:53;;;;;;;5.03;0.40;;;;;;;32.70;42.41;103001.22;5074929;28;20039;-72
2022/08/09 09:46:19;;;;;;;0.30;0.20;;;;;;;32.83;42.05;103005.53;5078249;28;20030;-73
2022/08/09 09:49:02;;;;;;;0.43;0.20;;;;;;;32.72;42.96;103010.81;5075037;28;20025;-72
2022/08/09 09:51:28;;;;;;;0.17;0.10;;;;;;;30.86;45.69;103009.06;5079801;28;20445;-73
2022/08/09 09:54:10;;;;;;;0.47;0.10;;;;;;;31.16;45.38;103012.53;5071278;28;20055;-72
2022/08/09 09:56:41;;;;;;;0.90;0.20;;;;;;;31.13;45.00;102999.34;5071898;28;20024;-72
2022/08/09 09:59:11;;;;;;;1.25;0.13;;;;;;;31.58;45.20;103005.31;5076036;28;20046;-72
2022/08/09 10:01:36;;;;;;;;;;;;;;;32.72;44.88;102994.44;5076199;28;20438;-72
2022/08/09 10:04:02;;;;;;;0.20;0.10;;;;;;;32.41;43.67;102993.06;5073196;28;20000;-72
2022/08/09 10:06:40;;;;;;;0.43;0.13;;;;;;;32.39;43.74;102976.06;5076836;28;20048;-73
2022/08/09 10:09:05;;;;;;;1.75;0.30;;;;;;;32.34;43.51;102986.91;5075637;28;20028;-72
2022/08/09 10:11:32;;;;;;;3.22;0.30;;;;;;;33.18;42.83;102980.66;5070208;28;20036;-72
2022/08/09 10:13:58;;;;;;;0.57;0.25;;;;;;;34.25;41.00;102977.63;5076446;28;20516;-72
2022/08/09 10:16:31;;;;;;;0.38;0.13;;;;;;;33.58;41.64;102985.88;5073168;28;20028;-72
2022/08/09 10:19:08;;;;;;;0.10;0.10;;;;;;;33.84;41.92;102983.50;5078030;28;20040;-73
2022/08/09 10:21:46;;;;;;;0.60;0.13;;;;;;;35.45;39.60;102988.13;5072543;28;20032;-73
2022/08/09 10:24:14;;;;;;;0.30;0.20;;;;;;;34.97;40.34;102990.03;5069550;28;20127;-72
2022/08/09 10:26:40;;;;;;;0.40;0.20;;;;;;;35.39;39.07;102994.72;5074872;28;20054;-73
2022/08/09 10:29:06;;;;;;;0.35;0.15;;;;;;;37.22;37.54;102992.56;5074512;28;20056;-73
2022/08/09 10:31:32;;;;;;;2.83;0.30;;;;;;;36.92;37.70;102985.16;5070423;28;20515;-72
2022/08/09 10:33:59;;;;;;;0.13;0.10;;;;;;;35.62;38.81;102986.03;5073484;28;20066;-72
2022/08/09 10:36:24;;;;;;;0.38;0.20;;;;;;;35.09;40.04;102987.94;5052932;28;20025;-72
2022/08/09 10:38:50;;;;;;;1.45;0.13;;;;;;;35.35;40.33;102985.38;5076647;28;20573;-72
2022/08/09 10:41:17;;;;;;;0.25;0.10;;;;;;;37.86;37.49;102985.41;5072174;28;20036;-73
2022/08/09 10:43:45;;;;;;;0.30;0.20;;;;;;;36.07;37.47;102988.41;5076797;28;20051;-72
2022/08/09 10:46:31;;;;;;;0.88;0.20;;;;;;;37.51;38.32;102984.44;5080001;28;20024;-73
2022/08/09 10:49:33;;;;;;;0.17;0.10;;;;;;;38.95;36.05;102975.22;5072043;28;20093;-72
2022/08/09 10:52:14;;;;;;;0.60;0.20;;;;;;;38.79;36.11;102980.88;5070349;28;20017;-73
2022/08/09 10:54:40;;;;;;;0.32;0.20;;;;;;;38.00;34.90;102969.91;5073705;28;20031;-73
2022/08/09 10:57:15;;;;;;;0.10;0.00;;;;;;;35.86;39.31;102979.28;5079276;28;20028;-72
2022/08/09 10:59:43;;;;;;;0.30;0.10;;;;;;;36.79;38.89;102970.88;5066361;28;20115;-72
2022/08/09 11:02:36;;;;;;;0.28;0.10;;;;;;;38.32;36.63;102973.25;5067997;28;20032;-73
2022/08/09 11:05:15;;;;;;;0.47;0.20;;;;;;;37.59;36.52;102978.38;5068620;28;20485;-73
2022/08/09 11:07:41;;;;;;;0.35;0.20;;;;;;;36.80;37.37;102975.28;5079372;28;20313;-73
2022/08/09 11:10:06;;;;;;;0.20;0.00;;;;;;;36.56;39.54;102976.91;5074910;28;20119;-73
2022/08/09 11:12:32;;;;;;;0.50;0.30;;;;;;;37.97;35.76;102969.63;5074784;28;20024;-72
2022/08/09 11:15:24;;;;;;;0.25;0.10;;;;;;;38.36;36.29;102974.34;5078968;28;20081;-73
2022/08/09 11:17:52;;;;;;;0.50;0.20;;;;;;;37.30;36.15;102974.63;5068159;28;20133;-73
2022/08/09 11:20:36;;;;;;;0.85;0.30;;;;;;;39.04;35.85;102973.44;5078830;28;20040;-73
2022/08/09 11:23:02;;;;;;;0.28;0.15;;;;;;;37.46;35.53;102974.28;5070335;28;20470;-72
2022/08/09 11:25:27;;;;;;;0.40;0.15;;;;;;;38.39;36.40;102974.59;5073285;28;20111;-72
2022/08/09 11:27:55;;;;;;;1.27;0.40;;;;;;;37.90;35.26;102975.47;5077182;28;20489;-72